METAR Formatted Surface Weather Observation
Issued by NWS

Home | Current Version | Previous Version | Text Only | Print | Product List | Glossary On
Versions: 1 2 3 4 5 6 7 8 9 10 11 12 13 14 15 16 17 18 19 20 21 22 23 24 25 26 27 28 29 30 31 32 33
088
SAUS46 KPQR 221557
MTRNUW
METAR KNUW 221556Z 22008KT 8SM OVC008 13/11 A3001 RMK AO2 RAB16E29
SLP160 P0000 T01280111 $



USA.gov is the U.S. government's official web portal to all federal, state and local government web resources and services.